• Join FlightAware (Why Join?)
  • Login
  • US Flag 
01:37PM EDT


 

Airport Tracker/Info


-or-


 

Live Flight TrackerFlight Track Log ✈ ASQ5941 ✈ 24-Apr-2013 ✈ KAVP - KORD

Flight Track Log - Related Links

Times and Time Zones

All times are in EDT time to prevent confusion due to time zone crossing. See the ASQ5941 flight status page for this flight to view local times or setup timezone preferences in your user account.

Time Position Orientation Groundspeed Altitude Reporting Facility
EDT Latitude Longitude Course Direction KTS MPH feet Rate Location/Type
05:32PM 41.2514 -75.8239 240° Southwest 190 219 5,100  Level New York Center
05:33PM 41.2214 -75.8933 240° Southwest 227 261 7,900 2,640 Climbing New York Center
05:34PM 41.1030 -75.9941 236° Southwest  Level FlightAware Approximate
05:34PM 41.1911 -75.9656 241° Southwest 233 268 10,500  Level New York Center
05:35PM 41.0551 -76.0956 239° Southwest  Level FlightAware Approximate
05:35PM 41.1519 -76.0533 239° Southwest 238 274 11,800  Level New York Center
05:36PM 41.0085 -76.1980 239° Southwest  Level FlightAware Approximate
05:36PM 41.1144 -76.1414 241° Southwest 264 304 12,800  Level New York Center
05:37PM 40.9636 -76.3017 240° Southwest  Level FlightAware Approximate
05:37PM 41.0750 -76.2319 240° Southwest 286 329 14,400  Level New York Center
05:38PM 41.0400 -76.3144 241° Southwest 286 329 16,100 1,560 Climbing New York Center
05:39PM 41.0003 -76.4044 240° Southwest 286 329 17,500 1,740 Climbing New York Center
05:40PM 40.9556 -76.5081 240° Southwest 286 329 19,600 1,920 Climbing New York Center
05:41PM 40.9158 -76.5981 240° Southwest 286 329 21,400 1,800 Climbing New York Center
05:42PM 40.8761 -76.6881 240° Southwest 286 329 23,200 1,620 Climbing New York Center
05:43PM 40.8361 -76.7778 240° Southwest 281 323 24,700 1,380 Climbing New York Center
05:44PM 40.7983 -76.8650 240° Southwest 281 323 26,000 1,200 Climbing New York Center
05:45PM 40.7989 -76.9719 270° West 281 323 27,100 960 Climbing New York Center
05:46PM 40.8136 -77.0886 280° West 287 330 28,000 900 Climbing New York Center
05:47PM 40.8261 -77.2022 278° West 304 350 29,000 1,020 Climbing New York Center
05:48PM 40.8408 -77.3189 280° West 316 364 30,100 1,200 Climbing New York Center
05:50PM 40.8672 -77.5600 278° West 317 365 32,800 1,200 Climbing Cleveland Center
05:51PM 40.8786 -77.6747 278° West 322 371 33,900 1,080 Climbing Cleveland Center
05:52PM 40.8944 -77.8058 279° West 322 371 35,000 960 Climbing Cleveland Center
05:53PM 40.9075 -77.9153 279° West 322 371 35,900 480 Climbing Cleveland Center
05:54PM 40.9122 -78.0306 273° West 322 371 36,000  Climbing Cleveland Center
05:55PM 40.9086 -78.1572 268° West 327 376 36,000  Level Cleveland Center
05:56PM 40.9089 -78.2725 270° West 337 388 36,000  Level Cleveland Center
05:57PM 40.9033 -78.4072 267° West 359 413 36,000  Level Cleveland Center
05:58PM 40.9017 -78.5419 269° West 366 421 36,000  Level Cleveland Center
05:59PM 40.9122 -78.6736 276° West 360 414 36,000  Level Cleveland Center
06:00PM 40.9228 -78.8053 276° West 360 414 36,000  Level Cleveland Center
06:01PM 40.9308 -78.9397 275° West 371 427 36,000  Level Cleveland Center
06:02PM 40.9431 -79.0739 277° West 377 434 36,000  Level Cleveland Center
06:03PM 40.9511 -79.2031 275° West 365 420 36,000  Level Cleveland Center
06:04PM 40.9631 -79.3292 277° West 358 412 36,000  Level Cleveland Center
06:05PM 40.9706 -79.4556 275° West 352 405 36,000  Level Cleveland Center
06:06PM 40.9822 -79.5847 277° West 352 405 36,000  Level Cleveland Center
06:07PM 40.9894 -79.7111 274° West 352 405 36,000  Level Cleveland Center
06:08PM 40.9967 -79.8347 274° West 352 405 36,000  Level Cleveland Center
06:09PM 41.0056 -79.9586 275° West 352 405 36,000  Level Cleveland Center
06:10PM 41.0144 -80.0769 276° West 347 399 36,000  Level Cleveland Center
06:11PM 41.0233 -80.2006 275° West 347 399 36,000  Level Cleveland Center
06:12PM 41.0319 -80.3272 275° West 347 399 36,000  Level Cleveland Center
06:13PM 41.0406 -80.4592 275° West 352 405 36,000  Level Cleveland Center
06:14PM 41.0511 -80.5942 276° West 362 417 36,000  Level Cleveland Center
06:15PM 41.0594 -80.7400 274° West 367 422 36,000  Level Cleveland Center
06:16PM 41.0675 -80.8750 275° West 367 422 36,000  Level Cleveland Center
06:17PM 41.0753 -81.0017 275° West 362 417 36,000  Level Cleveland Center
06:18PM 41.0811 -81.1394 273° West 371 427 36,000  Level Cleveland Center
06:19PM 41.0886 -81.2692 274° West 364 419 36,000  Level Cleveland Center
06:20PM 41.0961 -81.4014 274° West 364 419 36,000  Level Cleveland Center
06:21PM 41.1033 -81.5311 274° West 364 419 36,000  Level Cleveland Center
06:22PM 41.1086 -81.6633 273° West 364 419 36,000  Level Cleveland Center
06:23PM 41.1156 -81.7847 274° West 369 425 36,000  Level Cleveland Center
06:24PM 41.1267 -81.9256 276° West 358 412 36,000  Level Cleveland Center
06:25PM 41.1333 -82.0553 274° West 353 406 36,000  Level Cleveland Center
06:26PM 41.1378 -82.1906 273° West 358 412 36,000  Level Cleveland Center
06:27PM 41.1442 -82.3258 274° West 369 425 36,000  Level Cleveland Center
06:28PM 41.1506 -82.4528 274° West 362 417 36,000  Level Cleveland Center
06:29PM 41.1564 -82.5853 273° West 362 417 36,000  Level Cleveland Center
06:30PM 41.1622 -82.7233 273° West 372 428 36,000  Level Cleveland Center
06:31PM 41.1703 -82.8589 275° West 367 422 36,000  Level Cleveland Center
06:32PM 41.1758 -82.9861 273° West 362 417 36,000  Level Cleveland Center
06:33PM 41.1794 -83.1158 272° West 362 417 36,000  Level Cleveland Center
06:34PM 41.1828 -83.2400 272° West 357 411 36,000  Level Cleveland Center
06:35PM 41.1881 -83.3672 273° West 352 405 36,000  Level Cleveland Center
06:36PM 41.1953 -83.5000 274° West 352 405 36,000  Level Cleveland Center
06:37PM 41.2000 -83.6383 273° West 358 412 36,000  Level Cleveland Center
06:38PM 41.2025 -83.7681 272° West 364 419 36,000  Level Cleveland Center
06:39PM 41.2119 -83.8844 276° West 364 419 36,000  Level Cleveland Center
06:42PM 41.2225 -84.2033 273° West 362 417 36,000 -120 Level Chicago Center
06:43PM 41.2256 -84.3394 272° West 367 422 35,700 -780 Descending Chicago Center
06:44PM 41.2297 -84.4697 272° West 357 411 34,500 -840 Descending Chicago Center
06:45PM 41.2347 -84.6006 273° West 355 409 34,000 -300 Descending Chicago Center
06:46PM 41.2386 -84.7339 272° West 360 414 34,000  Level Chicago Center
06:47PM 41.2458 -84.8958 273° West 366 421 34,000 -300 Level Chicago Center
06:48PM 41.2500 -85.0289 272° West 361 415 33,500 -780 Descending Chicago Center
06:49PM 41.2558 -85.1619 273° West 359 413 32,500 -1,020 Descending Chicago Center
06:50PM 41.2597 -85.2944 272° West 359 413 31,400 -1,020 Descending Chicago Center
06:51PM 41.2650 -85.4286 273° West 360 414 30,400 -1,140 Descending Chicago Center
06:52PM 41.2692 -85.5667 272° West 369 425 29,100 -1,500 Descending Chicago Center
06:53PM 41.2733 -85.7047 272° West 372 428 27,300 -1,920 Descending Chicago Center
06:54PM 41.2781 -85.8764 272° West 382 440 25,200 -1,140 Descending Chicago Center
06:55PM 41.2831 -86.0150 273° West 377 434 25,000 -960 Descending Chicago Center
06:56PM 41.2964 -86.1447 278° West 356 410 23,300 -1,860 Descending Chicago Center
06:57PM 41.3111 -86.2736 279° West 354 407 21,200 -2,040 Descending Chicago Center
06:58PM 41.3250 -86.4008 278° West 350 403 19,200 -1,920 Descending Chicago Center
06:59PM 41.3408 -86.5258 280° West 343 395 17,300 -1,740 Descending Chicago Center
07:00PM 41.3947 -86.6239 306° West 342 394 15,600 -1,800 Descending Chicago Center
07:01PM 41.4969 -86.6911 334° Northwest 343 395 13,600 -1,740 Descending Chicago Center
07:02PM 41.5775 -86.7428 334° Northwest 331 381 12,100 -780 Descending Chicago Center
07:03PM 41.6586 -86.7928 335° Northwest 324 373 12,000 -60 Descending Chicago Center
07:04PM 41.7500 -86.8058 354° North 333 383 12,000  Level Chicago Center
07:05PM 41.8511 -86.8481 343° North 331 381 12,000 -420 Level Chicago Center
07:07PM 41.9047 -86.9406 308° West 318 366 11,200 -960 Descending Chicago Center
07:08PM 41.9575 -87.0336 307° West 317 365 10,100 -540 Descending Chicago Center
07:09PM 41.9931 -87.1389 294° West 313 360 10,100 -120 Level Chicago Center
07:10PM 41.9794 -87.2403 260° West 277 319 9,900 -660 Descending Chicago Center
07:11PM 41.9839 -87.3531 273° West 252 290 8,800 -1,140 Descending Chicago Center
07:12PM 41.9833 -87.4333 269° West 251 289 7,800 -1,440 Descending Chicago TRACON
07:13PM 41.9833 -87.5333 270° West 247 284 6,200 -1,500 Descending Chicago TRACON
07:14PM 41.9833 -87.6167 270° West 243 280 4,800 -1,380 Descending Chicago TRACON
07:14PM 41.9833 -87.7000 270° West 236 272 3,600 -1,320 Descending Chicago TRACON
07:15PM 41.9833 -87.7833 270° West 224 258 2,300 -1,140 Descending Chicago TRACON
07:16PM 41.9833 -87.8333 270° West 146 168 1,400 -900 Descending Chicago TRACON
07:19PM 41.9667 -87.9000 270° West  Level FlightAware Approximate